首页
METAR-TAF:

METAR-TAF

机场 :

威廉姆斯湖, 不列颠哥伦比亚, 加拿大

纬度: 52-11N, 经度: 122-03W, 海拔: 940米

当前天气观测

该预报发布于34分钟前的00:00 UTC
风速3节,风向多变
温度 9°C
湿度 34%
气压 1016 hPa
能見度: 24.1公里
多云层高于7000英尺

METAR: CYWL 080000Z VRB03KT 15SM BKN070 09/M06 A2999 RMK AC7 SLP177 DENSITY ALT 3100FT

时间: 17:34 (00:34 UTC)

预报

该预报发布于5小时和56分钟前的18:38 UTC
预报有效从07日的 19点(UTC)到 08日的 07点(UTC)
风速5节,风向西
能見度: 10公里
少量云层高于2000英尺
多云层高于4000英尺
多云层高于10000英尺
从 07日的 2100点(UTC)
风速10节,风向西
能見度: 10公里
多云层高于8000英尺
短暂存在
从 07日的 21点(UTC)到 08日的 03点(UTC)
能見度: 10公里
小阵雨
从 08日的 0300点(UTC)
风速8节,风向西
能見度: 10公里
散云层高于6000英尺
短暂存在
从 08日的 03点(UTC)到 08日的 07点(UTC)
多云层高于6000英尺

TAF: CYWL 071838Z 0719/0807 26005KT P6SM FEW020 BKN040 BKN100 FM072100 28010KT P6SM BKN080 TEMPO 0721/0803 P6SM -SHRA FM080300 27008KT P6SM SCT060 TEMPO 0803/0807 BKN060 RMK NXT FCST BY 080100Z

超过4000个机场的气象观测和天气预报(METAR&TAF报告)。

可查询的气象台以黄色和红色小点在地图上表示。

将鼠标移到小点上方,可查看气象台名称。

然后点击查看天气观测和预报。

如需切换地图:点击带黑十字的绿色按钮放大地图;点击带横线的绿色按钮缩小地图;或者点击绿色箭头查看邻近地区的地图。


METAR-TAF: